sensor_id;sensor_type;location;lat;lon;timestamp;P1;durP1;ratioP1;P2;durP2;ratioP2
77111;SDS011;66064;50.226;14.344;2023-04-03T00:01:24;8.02;;;7.63;;
77111;SDS011;66064;50.226;14.344;2023-04-03T00:03:51;7.13;;;6.72;;
77111;SDS011;66064;50.226;14.344;2023-04-03T00:06:19;6.55;;;6.25;;
77111;SDS011;66064;50.226;14.344;2023-04-03T00:08:46;7.80;;;7.30;;
77111;SDS011;66064;50.226;14.344;2023-04-03T00:11:12;7.30;;;6.80;;
77111;SDS011;66064;50.226;14.344;2023-04-03T00:13:38;10.35;;;9.85;;
77111;SDS011;66064;50.226;14.344;2023-04-03T00:16:11;10.25;;;9.75;;
77111;SDS011;66064;50.226;14.344;2023-04-03T00:18:37;8.27;;;7.88;;
77111;SDS011;66064;50.226;14.344;2023-04-03T00:21:05;7.22;;;6.80;;
77111;SDS011;66064;50.226;14.344;2023-04-03T00:23:33;8.57;;;8.18;;
77111;SDS011;66064;50.226;14.344;2023-04-03T00:26:00;6.68;;;6.38;;
77111;SDS011;66064;50.226;14.344;2023-04-03T00:28:26;10.55;;;10.05;;
77111;SDS011;66064;50.226;14.344;2023-04-03T00:33:22;9.13;;;8.73;;
77111;SDS011;66064;50.226;14.344;2023-04-03T00:35:52;7.40;;;7.00;;
77111;SDS011;66064;50.226;14.344;2023-04-03T00:38:18;8.82;;;8.43;;
77111;SDS011;66064;50.226;14.344;2023-04-03T00:40:46;17.23;;;16.52;;
77111;SDS011;66064;50.226;14.344;2023-04-03T00:43:14;11.00;;;10.25;;
77111;SDS011;66064;50.226;14.344;2023-04-03T00:45:50;6.28;;;5.95;;
77111;SDS011;66064;50.226;14.344;2023-04-03T00:48:59;9.25;;;8.75;;
77111;SDS011;66064;50.226;14.344;2023-04-03T00:51:19;10.15;;;9.65;;
77111;SDS011;66064;50.226;14.344;2023-04-03T00:53:54;7.18;;;6.85;;
77111;SDS011;66064;50.226;14.344;2023-04-03T00:56:25;11.48;;;7.88;;
77111;SDS011;66064;50.226;14.344;2023-04-03T00:58:57;8.18;;;7.78;;
77111;SDS011;66064;50.226;14.344;2023-04-03T01:01:28;8.25;;;7.85;;
77111;SDS011;66064;50.226;14.344;2023-04-03T01:03:58;6.72;;;6.32;;
77111;SDS011;66064;50.226;14.344;2023-04-03T01:06:27;6.60;;;6.28;;
77111;SDS011;66064;50.226;14.344;2023-04-03T01:08:59;6.68;;;6.38;;
77111;SDS011;66064;50.226;14.344;2023-04-03T01:11:26;8.18;;;7.78;;
77111;SDS011;66064;50.226;14.344;2023-04-03T01:13:52;7.57;;;7.18;;
77111;SDS011;66064;50.226;14.344;2023-04-03T01:16:19;8.10;;;7.68;;
77111;SDS011;66064;50.226;14.344;2023-04-03T01:18:45;8.00;;;7.60;;
77111;SDS011;66064;50.226;14.344;2023-04-03T01:24:09;8.27;;;7.88;;
77111;SDS011;66064;50.226;14.344;2023-04-03T01:26:59;7.13;;;6.82;;
77111;SDS011;66064;50.226;14.344;2023-04-03T01:29:28;7.78;;;7.38;;
77111;SDS011;66064;50.226;14.344;2023-04-03T01:31:58;7.47;;;7.05;;
77111;SDS011;66064;50.226;14.344;2023-04-03T01:34:28;12.02;;;9.60;;
77111;SDS011;66064;50.226;14.344;2023-04-03T01:36:56;9.40;;;9.00;;
77111;SDS011;66064;50.226;14.344;2023-04-03T01:39:22;9.05;;;8.57;;
77111;SDS011;66064;50.226;14.344;2023-04-03T01:41:49;8.82;;;8.43;;
77111;SDS011;66064;50.226;14.344;2023-04-03T01:44:16;10.20;;;9.75;;
77111;SDS011;66064;50.226;14.344;2023-04-03T01:46:42;8.07;;;7.68;;
77111;SDS011;66064;50.226;14.344;2023-04-03T01:49:09;9.23;;;8.82;;
77111;SDS011;66064;50.226;14.344;2023-04-03T01:51:35;7.97;;;7.60;;
77111;SDS011;66064;50.226;14.344;2023-04-03T01:54:01;17.73;;;17.02;;
77111;SDS011;66064;50.226;14.344;2023-04-03T01:56:28;8.13;;;7.72;;
77111;SDS011;66064;50.226;14.344;2023-04-03T01:58:54;9.93;;;9.52;;
77111;SDS011;66064;50.226;14.344;2023-04-03T02:01:20;8.80;;;8.40;;
77111;SDS011;66064;50.226;14.344;2023-04-03T02:03:46;9.05;;;8.65;;
77111;SDS011;66064;50.226;14.344;2023-04-03T02:06:13;9.30;;;8.90;;
77111;SDS011;66064;50.226;14.344;2023-04-03T02:08:39;8.13;;;7.72;;
77111;SDS011;66064;50.226;14.344;2023-04-03T02:11:06;8.63;;;8.23;;
77111;SDS011;66064;50.226;14.344;2023-04-03T02:13:32;10.30;;;9.88;;
77111;SDS011;66064;50.226;14.344;2023-04-03T02:15:58;10.70;;;10.25;;
77111;SDS011;66064;50.226;14.344;2023-04-03T02:18:24;18.10;;;17.42;;
77111;SDS011;66064;50.226;14.344;2023-04-03T02:20:50;7.85;;;7.47;;
77111;SDS011;66064;50.226;14.344;2023-04-03T02:23:16;9.43;;;8.73;;
77111;SDS011;66064;50.226;14.344;2023-04-03T02:25:43;12.20;;;11.70;;
77111;SDS011;66064;50.226;14.344;2023-04-03T02:28:09;9.48;;;8.93;;
77111;SDS011;66064;50.226;14.344;2023-04-03T02:30:35;8.68;;;7.97;;
77111;SDS011;66064;50.226;14.344;2023-04-03T02:33:01;8.85;;;8.45;;
77111;SDS011;66064;50.226;14.344;2023-04-03T02:35:27;8.93;;;8.52;;
77111;SDS011;66064;50.226;14.344;2023-04-03T02:38:02;9.93;;;9.23;;
77111;SDS011;66064;50.226;14.344;2023-04-03T02:40:28;12.95;;;12.45;;
77111;SDS011;66064;50.226;14.344;2023-04-03T02:42:55;9.40;;;9.00;;
77111;SDS011;66064;50.226;14.344;2023-04-03T02:45:21;8.52;;;8.13;;
77111;SDS011;66064;50.226;14.344;2023-04-03T02:47:47;10.05;;;9.65;;
77111;SDS011;66064;50.226;14.344;2023-04-03T02:50:14;8.95;;;8.50;;
77111;SDS011;66064;50.226;14.344;2023-04-03T02:52:40;9.68;;;9.18;;
77111;SDS011;66064;50.226;14.344;2023-04-03T02:55:08;11.40;;;10.70;;
77111;SDS011;66064;50.226;14.344;2023-04-03T02:57:38;10.88;;;10.38;;
77111;SDS011;66064;50.226;14.344;2023-04-03T03:00:05;9.48;;;9.05;;
77111;SDS011;66064;50.226;14.344;2023-04-03T03:02:32;12.73;;;12.23;;
77111;SDS011;66064;50.226;14.344;2023-04-03T03:04:58;8.40;;;8.00;;
77111;SDS011;66064;50.226;14.344;2023-04-03T03:07:24;11.15;;;10.55;;
77111;SDS011;66064;50.226;14.344;2023-04-03T03:09:51;11.70;;;11.20;;
77111;SDS011;66064;50.226;14.344;2023-04-03T03:12:18;8.73;;;8.32;;
77111;SDS011;66064;50.226;14.344;2023-04-03T03:14:47;10.68;;;10.18;;
77111;SDS011;66064;50.226;14.344;2023-04-03T03:17:14;10.35;;;9.85;;
77111;SDS011;66064;50.226;14.344;2023-04-03T03:19:41;9.20;;;8.80;;
77111;SDS011;66064;50.226;14.344;2023-04-03T03:22:07;14.00;;;13.40;;
77111;SDS011;66064;50.226;14.344;2023-04-03T03:24:33;10.88;;;10.43;;
77111;SDS011;66064;50.226;14.344;2023-04-03T03:26:59;11.40;;;10.80;;
77111;SDS011;66064;50.226;14.344;2023-04-03T03:29:25;10.35;;;9.85;;
77111;SDS011;66064;50.226;14.344;2023-04-03T03:31:51;11.50;;;10.57;;
77111;SDS011;66064;50.226;14.344;2023-04-03T03:34:20;10.70;;;10.15;;
77111;SDS011;66064;50.226;14.344;2023-04-03T03:36:46;12.32;;;11.82;;
77111;SDS011;66064;50.226;14.344;2023-04-03T03:39:12;9.48;;;8.98;;
77111;SDS011;66064;50.226;14.344;2023-04-03T03:41:38;9.95;;;9.45;;
77111;SDS011;66064;50.226;14.344;2023-04-03T03:44:04;9.65;;;9.25;;
77111;SDS011;66064;50.226;14.344;2023-04-03T03:46:30;8.73;;;8.32;;
77111;SDS011;66064;50.226;14.344;2023-04-03T03:48:56;12.05;;;11.45;;
77111;SDS011;66064;50.226;14.344;2023-04-03T03:51:23;12.05;;;11.55;;
77111;SDS011;66064;50.226;14.344;2023-04-03T03:53:49;10.00;;;9.60;;
77111;SDS011;66064;50.226;14.344;2023-04-03T03:56:15;10.02;;;9.43;;
77111;SDS011;66064;50.226;14.344;2023-04-03T03:58:42;9.68;;;9.27;;
77111;SDS011;66064;50.226;14.344;2023-04-03T04:01:07;8.80;;;8.40;;
77111;SDS011;66064;50.226;14.344;2023-04-03T04:03:35;10.95;;;10.48;;
77111;SDS011;66064;50.226;14.344;2023-04-03T04:06:02;11.05;;;10.55;;
77111;SDS011;66064;50.226;14.344;2023-04-03T04:08:28;10.02;;;9.63;;
77111;SDS011;66064;50.226;14.344;2023-04-03T04:10:55;12.80;;;12.27;;
77111;SDS011;66064;50.226;14.344;2023-04-03T04:13:22;10.63;;;10.13;;
77111;SDS011;66064;50.226;14.344;2023-04-03T04:15:48;9.25;;;8.85;;
77111;SDS011;66064;50.226;14.344;2023-04-03T04:18:15;9.48;;;9.07;;
77111;SDS011;66064;50.226;14.344;2023-04-03T04:20:41;11.43;;;10.95;;
77111;SDS011;66064;50.226;14.344;2023-04-03T04:23:07;10.00;;;9.60;;
77111;SDS011;66064;50.226;14.344;2023-04-03T04:25:33;10.15;;;9.75;;
77111;SDS011;66064;50.226;14.344;2023-04-03T04:28:00;10.30;;;9.90;;
77111;SDS011;66064;50.226;14.344;2023-04-03T04:30:26;11.05;;;10.57;;
77111;SDS011;66064;50.226;14.344;2023-04-03T04:32:53;9.32;;;8.93;;
77111;SDS011;66064;50.226;14.344;2023-04-03T04:35:21;10.82;;;10.23;;
77111;SDS011;66064;50.226;14.344;2023-04-03T04:37:47;11.55;;;11.05;;
77111;SDS011;66064;50.226;14.344;2023-04-03T04:40:13;10.65;;;10.15;;
77111;SDS011;66064;50.226;14.344;2023-04-03T04:42:39;11.85;;;11.30;;
77111;SDS011;66064;50.226;14.344;2023-04-03T04:45:06;12.25;;;11.75;;
77111;SDS011;66064;50.226;14.344;2023-04-03T04:47:33;9.95;;;9.55;;
77111;SDS011;66064;50.226;14.344;2023-04-03T04:50:01;13.07;;;10.43;;
77111;SDS011;66064;50.226;14.344;2023-04-03T04:52:27;9.45;;;8.98;;
77111;SDS011;66064;50.226;14.344;2023-04-03T04:54:53;12.00;;;11.50;;
77111;SDS011;66064;50.226;14.344;2023-04-03T04:57:19;12.10;;;11.50;;
77111;SDS011;66064;50.226;14.344;2023-04-03T04:59:45;9.52;;;9.13;;
77111;SDS011;66064;50.226;14.344;2023-04-03T05:02:13;11.13;;;10.63;;
77111;SDS011;66064;50.226;14.344;2023-04-03T05:04:40;10.48;;;9.98;;
77111;SDS011;66064;50.226;14.344;2023-04-03T05:07:06;11.00;;;10.52;;
77111;SDS011;66064;50.226;14.344;2023-04-03T05:09:33;13.27;;;12.77;;
77111;SDS011;66064;50.226;14.344;2023-04-03T05:11:59;14.40;;;13.82;;
77111;SDS011;66064;50.226;14.344;2023-04-03T05:14:26;9.50;;;9.02;;
77111;SDS011;66064;50.226;14.344;2023-04-03T05:16:52;10.32;;;9.82;;
77111;SDS011;66064;50.226;14.344;2023-04-03T05:19:20;8.25;;;7.85;;
77111;SDS011;66064;50.226;14.344;2023-04-03T05:21:47;11.48;;;10.98;;
77111;SDS011;66064;50.226;14.344;2023-04-03T05:24:14;10.15;;;9.70;;
77111;SDS011;66064;50.226;14.344;2023-04-03T05:26:42;9.93;;;9.43;;
77111;SDS011;66064;50.226;14.344;2023-04-03T05:29:09;10.40;;;9.90;;
77111;SDS011;66064;50.226;14.344;2023-04-03T05:31:36;11.00;;;10.40;;
77111;SDS011;66064;50.226;14.344;2023-04-03T05:34:02;8.73;;;8.32;;
77111;SDS011;66064;50.226;14.344;2023-04-03T05:36:28;7.97;;;7.38;;
77111;SDS011;66064;50.226;14.344;2023-04-03T05:38:54;10.77;;;10.32;;
77111;SDS011;66064;50.226;14.344;2023-04-03T05:41:22;9.38;;;8.93;;
77111;SDS011;66064;50.226;14.344;2023-04-03T05:43:48;9.48;;;8.88;;
77111;SDS011;66064;50.226;14.344;2023-04-03T05:46:16;6.43;;;6.10;;
77111;SDS011;66064;50.226;14.344;2023-04-03T05:48:44;11.65;;;11.07;;
77111;SDS011;66064;50.226;14.344;2023-04-03T05:51:13;7.38;;;6.97;;
77111;SDS011;66064;50.226;14.344;2023-04-03T05:53:41;6.82;;;6.43;;
77111;SDS011;66064;50.226;14.344;2023-04-03T05:56:09;7.72;;;7.32;;
77111;SDS011;66064;50.226;14.344;2023-04-03T05:58:35;8.27;;;7.55;;
77111;SDS011;66064;50.226;14.344;2023-04-03T06:01:01;7.50;;;6.95;;
77111;SDS011;66064;50.226;14.344;2023-04-03T06:03:27;6.95;;;6.35;;
77111;SDS011;66064;50.226;14.344;2023-04-03T06:05:53;9.55;;;8.60;;
77111;SDS011;66064;50.226;14.344;2023-04-03T06:08:19;10.40;;;9.90;;
77111;SDS011;66064;50.226;14.344;2023-04-03T06:10:45;6.32;;;5.93;;
77111;SDS011;66064;50.226;14.344;2023-04-03T06:13:12;6.47;;;5.97;;
77111;SDS011;66064;50.226;14.344;2023-04-03T06:15:38;7.57;;;7.10;;
77111;SDS011;66064;50.226;14.344;2023-04-03T06:18:05;7.13;;;6.63;;
77111;SDS011;66064;50.226;14.344;2023-04-03T06:20:32;6.72;;;6.18;;
77111;SDS011;66064;50.226;14.344;2023-04-03T06:22:58;6.63;;;6.05;;
77111;SDS011;66064;50.226;14.344;2023-04-03T06:25:24;5.60;;;5.30;;
77111;SDS011;66064;50.226;14.344;2023-04-03T06:27:50;6.45;;;5.90;;
77111;SDS011;66064;50.226;14.344;2023-04-03T06:30:16;6.72;;;6.20;;
77111;SDS011;66064;50.226;14.344;2023-04-03T06:32:42;12.00;;;11.30;;
77111;SDS011;66064;50.226;14.344;2023-04-03T06:35:08;6.25;;;5.75;;
77111;SDS011;66064;50.226;14.344;2023-04-03T06:37:35;6.03;;;5.68;;
77111;SDS011;66064;50.226;14.344;2023-04-03T06:40:01;8.07;;;7.53;;
77111;SDS011;66064;50.226;14.344;2023-04-03T06:42:28;6.10;;;5.70;;
77111;SDS011;66064;50.226;14.344;2023-04-03T06:44:54;6.13;;;5.63;;
77111;SDS011;66064;50.226;14.344;2023-04-03T06:47:20;5.85;;;5.50;;
77111;SDS011;66064;50.226;14.344;2023-04-03T06:49:46;5.90;;;5.35;;
77111;SDS011;66064;50.226;14.344;2023-04-03T06:52:12;5.85;;;5.35;;
77111;SDS011;66064;50.226;14.344;2023-04-03T06:54:39;6.82;;;5.75;;
77111;SDS011;66064;50.226;14.344;2023-04-03T06:57:06;4.25;;;3.95;;
77111;SDS011;66064;50.226;14.344;2023-04-03T06:59:32;5.93;;;5.43;;
77111;SDS011;66064;50.226;14.344;2023-04-03T07:01:58;5.32;;;4.93;;
77111;SDS011;66064;50.226;14.344;2023-04-03T07:04:25;7.88;;;7.38;;
77111;SDS011;66064;50.226;14.344;2023-04-03T07:06:51;5.28;;;4.97;;
77111;SDS011;66064;50.226;14.344;2023-04-03T07:09:18;5.20;;;4.75;;
77111;SDS011;66064;50.226;14.344;2023-04-03T07:11:44;4.95;;;4.38;;
77111;SDS011;66064;50.226;14.344;2023-04-03T07:14:10;6.60;;;4.55;;
77111;SDS011;66064;50.226;14.344;2023-04-03T07:16:36;4.80;;;4.22;;
77111;SDS011;66064;50.226;14.344;2023-04-03T07:19:02;5.63;;;4.22;;
77111;SDS011;66064;50.226;14.344;2023-04-03T07:21:28;5.95;;;4.43;;
77111;SDS011;66064;50.226;14.344;2023-04-03T07:23:55;5.55;;;5.05;;
77111;SDS011;66064;50.226;14.344;2023-04-03T07:26:21;4.93;;;4.35;;
77111;SDS011;66064;50.226;14.344;2023-04-03T07:28:49;5.43;;;4.95;;
77111;SDS011;66064;50.226;14.344;2023-04-03T07:31:15;5.22;;;4.72;;
77111;SDS011;66064;50.226;14.344;2023-04-03T07:33:43;5.00;;;4.65;;
77111;SDS011;66064;50.226;14.344;2023-04-03T07:36:13;4.53;;;4.10;;
77111;SDS011;66064;50.226;14.344;2023-04-03T07:38:42;4.45;;;4.05;;
77111;SDS011;66064;50.226;14.344;2023-04-03T07:41:10;4.45;;;4.05;;
77111;SDS011;66064;50.226;14.344;2023-04-03T07:43:41;4.30;;;4.00;;
77111;SDS011;66064;50.226;14.344;2023-04-03T07:46:07;6.00;;;5.55;;
77111;SDS011;66064;50.226;14.344;2023-04-03T07:48:34;5.57;;;4.00;;
77111;SDS011;66064;50.226;14.344;2023-04-03T07:51:01;7.25;;;5.28;;
77111;SDS011;66064;50.226;14.344;2023-04-03T07:53:29;4.55;;;4.13;;
77111;SDS011;66064;50.226;14.344;2023-04-03T07:55:58;11.00;;;4.60;;
77111;SDS011;66064;50.226;14.344;2023-04-03T07:58:25;4.82;;;4.38;;
77111;SDS011;66064;50.226;14.344;2023-04-03T08:00:52;4.80;;;4.40;;
77111;SDS011;66064;50.226;14.344;2023-04-03T08:03:18;3.97;;;3.58;;
77111;SDS011;66064;50.226;14.344;2023-04-03T08:05:45;3.63;;;3.33;;
77111;SDS011;66064;50.226;14.344;2023-04-03T08:08:13;4.97;;;4.35;;
77111;SDS011;66064;50.226;14.344;2023-04-03T08:10:42;5.45;;;3.75;;
77111;SDS011;66064;50.226;14.344;2023-04-03T08:13:08;4.10;;;3.65;;
77111;SDS011;66064;50.226;14.344;2023-04-03T08:15:35;6.25;;;3.85;;
77111;SDS011;66064;50.226;14.344;2023-04-03T08:18:02;3.55;;;3.25;;
77111;SDS011;66064;50.226;14.344;2023-04-03T08:20:28;5.95;;;3.75;;
77111;SDS011;66064;50.226;14.344;2023-04-03T08:22:55;5.07;;;4.13;;
77111;SDS011;66064;50.226;14.344;2023-04-03T08:25:20;4.80;;;3.83;;
77111;SDS011;66064;50.226;14.344;2023-04-03T08:27:47;4.85;;;3.13;;
77111;SDS011;66064;50.226;14.344;2023-04-03T08:30:13;3.35;;;3.05;;
77111;SDS011;66064;50.226;14.344;2023-04-03T08:32:39;3.45;;;3.03;;
77111;SDS011;66064;50.226;14.344;2023-04-03T08:35:07;3.80;;;3.40;;
77111;SDS011;66064;50.226;14.344;2023-04-03T08:37:37;4.78;;;3.92;;
77111;SDS011;66064;50.226;14.344;2023-04-03T08:40:07;5.40;;;3.20;;
77111;SDS011;66064;50.226;14.344;2023-04-03T08:45:44;3.33;;;2.90;;
77111;SDS011;66064;50.226;14.344;2023-04-03T08:48:17;3.63;;;3.25;;
77111;SDS011;66064;50.226;14.344;2023-04-03T08:50:47;5.10;;;4.70;;
77111;SDS011;66064;50.226;14.344;2023-04-03T08:53:21;3.70;;;3.40;;
77111;SDS011;66064;50.226;14.344;2023-04-03T08:55:50;4.05;;;3.08;;
77111;SDS011;66064;50.226;14.344;2023-04-03T08:58:21;4.95;;;2.88;;
77111;SDS011;66064;50.226;14.344;2023-04-03T09:00:50;4.22;;;2.90;;
77111;SDS011;66064;50.226;14.344;2023-04-03T09:03:33;4.88;;;3.33;;
77111;SDS011;66064;50.226;14.344;2023-04-03T09:06:07;4.07;;;3.00;;
77111;SDS011;66064;50.226;14.344;2023-04-03T09:08:45;4.25;;;2.58;;
77111;SDS011;66064;50.226;14.344;2023-04-03T09:11:25;3.47;;;3.03;;
77111;SDS011;66064;50.226;14.344;2023-04-03T09:22:41;4.10;;;3.28;;
77111;SDS011;66064;50.226;14.344;2023-04-03T09:25:22;3.47;;;2.65;;
77111;SDS011;66064;50.226;14.344;2023-04-03T09:30:19;5.10;;;3.38;;
77111;SDS011;66064;50.226;14.344;2023-04-03T09:32:50;5.78;;;3.35;;
77111;SDS011;66064;50.226;14.344;2023-04-03T09:35:21;5.75;;;3.22;;
77111;SDS011;66064;50.226;14.344;2023-04-03T09:37:51;5.45;;;3.58;;
77111;SDS011;66064;50.226;14.344;2023-04-03T09:42:50;3.33;;;3.00;;
77111;SDS011;66064;50.226;14.344;2023-04-03T09:45:21;4.22;;;3.92;;
77111;SDS011;66064;50.226;14.344;2023-04-03T09:48:08;3.47;;;3.17;;
77111;SDS011;66064;50.226;14.344;2023-04-03T09:50:35;5.63;;;5.22;;
77111;SDS011;66064;50.226;14.344;2023-04-03T09:53:04;4.43;;;4.05;;
77111;SDS011;66064;50.226;14.344;2023-04-03T09:55:50;4.07;;;2.85;;
77111;SDS011;66064;50.226;14.344;2023-04-03T09:58:27;4.40;;;3.00;;
77111;SDS011;66064;50.226;14.344;2023-04-03T10:00:57;9.10;;;2.95;;
77111;SDS011;66064;50.226;14.344;2023-04-03T10:03:34;4.75;;;4.43;;
77111;SDS011;66064;50.226;14.344;2023-04-03T10:06:03;5.50;;;4.78;;
77111;SDS011;66064;50.226;14.344;2023-04-03T10:08:31;5.15;;;4.80;;
77111;SDS011;66064;50.226;14.344;2023-04-03T10:13:51;4.50;;;4.20;;
77111;SDS011;66064;50.226;14.344;2023-04-03T10:16:22;4.32;;;4.03;;
77111;SDS011;66064;50.226;14.344;2023-04-03T10:21:57;5.07;;;4.78;;
77111;SDS011;66064;50.226;14.344;2023-04-03T10:24:34;4.30;;;4.00;;
77111;SDS011;66064;50.226;14.344;2023-04-03T10:27:14;7.10;;;6.65;;
77111;SDS011;66064;50.226;14.344;2023-04-03T10:38:00;4.45;;;4.05;;
77111;SDS011;66064;50.226;14.344;2023-04-03T10:40:55;5.00;;;4.53;;
77111;SDS011;66064;50.226;14.344;2023-04-03T10:51:39;6.78;;;6.00;;
77111;SDS011;66064;50.226;14.344;2023-04-03T10:54:38;5.72;;;5.43;;
77111;SDS011;66064;50.226;14.344;2023-04-03T10:57:07;5.95;;;5.65;;
77111;SDS011;66064;50.226;14.344;2023-04-03T11:02:16;3.80;;;3.50;;
77111;SDS011;66064;50.226;14.344;2023-04-03T11:04:50;3.05;;;2.85;;
77111;SDS011;66064;50.226;14.344;2023-04-03T11:07:42;5.57;;;5.18;;
77111;SDS011;66064;50.226;14.344;2023-04-03T11:11:10;6.55;;;6.15;;
77111;SDS011;66064;50.226;14.344;2023-04-03T11:15:53;5.55;;;5.13;;
77111;SDS011;66064;50.226;14.344;2023-04-03T11:21:37;7.57;;;7.10;;
77111;SDS011;66064;50.226;14.344;2023-04-03T11:24:27;9.43;;;8.93;;
77111;SDS011;66064;50.226;14.344;2023-04-03T11:26:57;4.25;;;3.92;;
77111;SDS011;66064;50.226;14.344;2023-04-03T11:29:31;8.23;;;7.70;;
77111;SDS011;66064;50.226;14.344;2023-04-03T11:34:39;5.93;;;5.53;;
77111;SDS011;66064;50.226;14.344;2023-04-03T11:37:13;4.57;;;4.20;;
77111;SDS011;66064;50.226;14.344;2023-04-03T11:39:52;6.65;;;6.18;;
77111;SDS011;66064;50.226;14.344;2023-04-03T11:42:34;5.88;;;5.45;;
77111;SDS011;66064;50.226;14.344;2023-04-03T11:47:57;6.30;;;5.90;;
77111;SDS011;66064;50.226;14.344;2023-04-03T12:05:54;6.88;;;6.38;;
77111;SDS011;66064;50.226;14.344;2023-04-03T12:27:26;5.85;;;5.55;;
77111;SDS011;66064;50.226;14.344;2023-04-03T12:29:47;4.47;;;4.18;;
77111;SDS011;66064;50.226;14.344;2023-04-03T12:43:38;4.68;;;4.38;;
77111;SDS011;66064;50.226;14.344;2023-04-03T12:46:26;4.55;;;4.25;;
77111;SDS011;66064;50.226;14.344;2023-04-03T12:49:04;4.72;;;4.43;;
77111;SDS011;66064;50.226;14.344;2023-04-03T12:51:46;6.07;;;5.68;;
77111;SDS011;66064;50.226;14.344;2023-04-03T12:54:16;7.18;;;6.78;;
77111;SDS011;66064;50.226;14.344;2023-04-03T12:57:09;5.68;;;5.38;;
77111;SDS011;66064;50.226;14.344;2023-04-03T12:59:43;4.45;;;4.18;;
77111;SDS011;66064;50.226;14.344;2023-04-03T13:02:24;5.38;;;4.93;;
77111;SDS011;66064;50.226;14.344;2023-04-03T13:04:54;5.80;;;5.50;;
77111;SDS011;66064;50.226;14.344;2023-04-03T13:07:24;5.93;;;5.63;;
77111;SDS011;66064;50.226;14.344;2023-04-03T13:12:33;5.88;;;5.35;;
77111;SDS011;66064;50.226;14.344;2023-04-03T13:15:01;5.68;;;5.38;;
77111;SDS011;66064;50.226;14.344;2023-04-03T13:17:38;5.60;;;5.30;;
77111;SDS011;66064;50.226;14.344;2023-04-03T13:20:13;9.20;;;8.75;;
77111;SDS011;66064;50.226;14.344;2023-04-03T13:25:32;6.28;;;5.97;;
77111;SDS011;66064;50.226;14.344;2023-04-03T13:28:01;7.63;;;7.22;;
77111;SDS011;66064;50.226;14.344;2023-04-03T13:30:31;10.82;;;10.35;;
77111;SDS011;66064;50.226;14.344;2023-04-03T13:33:00;6.03;;;5.72;;
77111;SDS011;66064;50.226;14.344;2023-04-03T13:35:29;8.27;;;7.88;;
77111;SDS011;66064;50.226;14.344;2023-04-03T13:38:07;6.95;;;6.57;;
77111;SDS011;66064;50.226;14.344;2023-04-03T13:40:51;6.43;;;6.03;;
77111;SDS011;66064;50.226;14.344;2023-04-03T13:43:24;7.63;;;6.82;;
77111;SDS011;66064;50.226;14.344;2023-04-03T13:46:00;13.80;;;13.23;;
77111;SDS011;66064;50.226;14.344;2023-04-03T13:48:27;5.63;;;5.32;;
77111;SDS011;66064;50.226;14.344;2023-04-03T13:51:05;7.47;;;7.07;;
77111;SDS011;66064;50.226;14.344;2023-04-03T13:53:55;6.60;;;6.30;;
77111;SDS011;66064;50.226;14.344;2023-04-03T14:01:41;7.13;;;6.68;;
77111;SDS011;66064;50.226;14.344;2023-04-03T14:04:16;7.53;;;6.68;;
77111;SDS011;66064;50.226;14.344;2023-04-03T14:06:53;7.53;;;7.07;;
77111;SDS011;66064;50.226;14.344;2023-04-03T14:09:20;6.95;;;6.38;;
77111;SDS011;66064;50.226;14.344;2023-04-03T14:11:48;6.57;;;6.25;;
77111;SDS011;66064;50.226;14.344;2023-04-03T14:14:20;8.52;;;8.02;;
77111;SDS011;66064;50.226;14.344;2023-04-03T14:16:53;6.40;;;6.10;;
77111;SDS011;66064;50.226;14.344;2023-04-03T14:21:49;7.53;;;7.13;;
77111;SDS011;66064;50.226;14.344;2023-04-03T14:24:16;5.93;;;5.55;;
77111;SDS011;66064;50.226;14.344;2023-04-03T14:26:42;6.43;;;6.13;;
77111;SDS011;66064;50.226;14.344;2023-04-03T14:29:10;6.38;;;6.07;;
77111;SDS011;66064;50.226;14.344;2023-04-03T14:31:37;5.90;;;5.53;;
77111;SDS011;66064;50.226;14.344;2023-04-03T14:34:03;5.53;;;5.22;;
77111;SDS011;66064;50.226;14.344;2023-04-03T14:36:29;12.82;;;12.32;;
77111;SDS011;66064;50.226;14.344;2023-04-03T14:38:56;7.50;;;7.15;;
77111;SDS011;66064;50.226;14.344;2023-04-03T14:41:23;5.35;;;5.05;;
77111;SDS011;66064;50.226;14.344;2023-04-03T14:43:50;6.50;;;6.10;;
77111;SDS011;66064;50.226;14.344;2023-04-03T14:46:19;6.55;;;6.25;;
77111;SDS011;66064;50.226;14.344;2023-04-03T14:51:13;6.18;;;5.88;;
77111;SDS011;66064;50.226;14.344;2023-04-03T14:53:41;13.95;;;6.50;;
77111;SDS011;66064;50.226;14.344;2023-04-03T14:58:41;7.53;;;7.18;;
77111;SDS011;66064;50.226;14.344;2023-04-03T15:01:19;5.32;;;5.03;;
77111;SDS011;66064;50.226;14.344;2023-04-03T15:03:45;13.02;;;12.50;;
77111;SDS011;66064;50.226;14.344;2023-04-03T15:06:19;8.38;;;7.88;;
77111;SDS011;66064;50.226;14.344;2023-04-03T15:08:46;7.05;;;6.65;;
77111;SDS011;66064;50.226;14.344;2023-04-03T15:11:14;9.07;;;8.55;;
77111;SDS011;66064;50.226;14.344;2023-04-03T15:13:42;7.57;;;7.18;;
77111;SDS011;66064;50.226;14.344;2023-04-03T15:16:16;7.50;;;6.88;;
77111;SDS011;66064;50.226;14.344;2023-04-03T15:18:44;6.85;;;6.55;;
77111;SDS011;66064;50.226;14.344;2023-04-03T15:21:11;6.72;;;6.28;;
77111;SDS011;66064;50.226;14.344;2023-04-03T15:23:39;8.93;;;8.52;;
77111;SDS011;66064;50.226;14.344;2023-04-03T15:26:06;7.97;;;7.57;;
77111;SDS011;66064;50.226;14.344;2023-04-03T15:28:37;6.13;;;5.82;;
77111;SDS011;66064;50.226;14.344;2023-04-03T15:33:23;14.57;;;13.98;;
77111;SDS011;66064;50.226;14.344;2023-04-03T15:35:51;13.90;;;13.30;;
77111;SDS011;66064;50.226;14.344;2023-04-03T15:38:17;16.63;;;15.93;;
77111;SDS011;66064;50.226;14.344;2023-04-03T15:40:44;12.90;;;12.40;;
77111;SDS011;66064;50.226;14.344;2023-04-03T15:43:13;7.88;;;7.47;;
77111;SDS011;66064;50.226;14.344;2023-04-03T15:45:40;15.20;;;14.60;;
77111;SDS011;66064;50.226;14.344;2023-04-03T15:48:08;14.80;;;14.20;;
77111;SDS011;66064;50.226;14.344;2023-04-03T15:50:36;14.23;;;13.65;;
77111;SDS011;66064;50.226;14.344;2023-04-03T15:53:03;13.75;;;13.13;;
77111;SDS011;66064;50.226;14.344;2023-04-03T15:55:31;15.38;;;14.77;;
77111;SDS011;66064;50.226;14.344;2023-04-03T15:57:59;14.43;;;13.75;;
77111;SDS011;66064;50.226;14.344;2023-04-03T16:00:26;15.95;;;15.25;;
77111;SDS011;66064;50.226;14.344;2023-04-03T16:02:58;14.88;;;14.13;;
77111;SDS011;66064;50.226;14.344;2023-04-03T16:05:29;13.13;;;12.63;;
77111;SDS011;66064;50.226;14.344;2023-04-03T16:07:56;15.07;;;14.48;;
77111;SDS011;66064;50.226;14.344;2023-04-03T16:10:26;16.45;;;15.85;;
77111;SDS011;66064;50.226;14.344;2023-04-03T16:12:53;14.13;;;13.57;;
77111;SDS011;66064;50.226;14.344;2023-04-03T16:15:19;13.23;;;12.73;;
77111;SDS011;66064;50.226;14.344;2023-04-03T16:17:46;16.30;;;15.50;;
77111;SDS011;66064;50.226;14.344;2023-04-03T16:20:16;13.73;;;13.15;;
77111;SDS011;66064;50.226;14.344;2023-04-03T16:22:44;13.52;;;12.93;;
77111;SDS011;66064;50.226;14.344;2023-04-03T16:25:11;20.20;;;19.25;;
77111;SDS011;66064;50.226;14.344;2023-04-03T16:27:39;8.10;;;7.70;;
77111;SDS011;66064;50.226;14.344;2023-04-03T16:30:06;15.85;;;15.20;;
77111;SDS011;66064;50.226;14.344;2023-04-03T16:32:33;14.95;;;14.35;;
77111;SDS011;66064;50.226;14.344;2023-04-03T16:35:00;16.05;;;15.38;;
77111;SDS011;66064;50.226;14.344;2023-04-03T16:37:32;20.38;;;19.58;;
77111;SDS011;66064;50.226;14.344;2023-04-03T16:40:00;26.52;;;14.35;;
77111;SDS011;66064;50.226;14.344;2023-04-03T16:42:26;16.83;;;16.23;;
77111;SDS011;66064;50.226;14.344;2023-04-03T16:44:52;17.23;;;16.63;;